Sunday, March 29, 2015, 9:39 AM EDT
Back to Local

KMPO, Mt Pocono Pocono Mountains

Location: Pocono Summit, PA, United States Lat: 41.133
Local Time: 9:39 AM EDT (13:39 GMT) Lon: -75.383
Time Zone: US/Eastern Elev: 1915 ft

Show me the last for .
Show Coded

Time T Td Feel RH Dir Speed Gust Alt SLP Vis Weather Sky Remarks
2015-03-29 07:53 16 8 2 70 320° 14 - 30.15 30.25 10 CLR 6-hr Min Temp (8am): 15.1°F
6-hr Max Temp (8am): 16.0°F
2015-03-29 06:53 15 7 -4 69 330° 17 24 30.11 30.21 10 CLR None
2015-03-29 05:53 15 5 -4 63 310° 17 24 30.09 30.18 10 CLR None
2015-03-29 04:53 15 4 -3 60 320° 16 23 30.06 30.16 10 CLR None
2015-03-29 03:53 16 4 -2 58 320° 15 24 30.05 30.14 10 CLR None
2015-03-29 01:53 16 4 2 58 320° 13 - 30.05 30.14 10 CLR 6-hr Min Temp (2am): 16.0°F
6-hr Max Temp (2am): 19.0°F
2015-03-29 00:53 17 3 -2 53 320° 16 26 30.04 30.13 10 FEW055 OVC070 24-hr Min Temp (1am): 17.1°F
24-hr Max Temp (1am): 28.0°F
2015-03-28 22:53 17 3 -2 53 320° 20 28 30.03 30.12 10 OVC050 Peak wind: 32 mph (28 kts) from 320° at 41 min
2015-03-28 21:53 17 4 -2 55 330° 16 26 30.01 30.11 10 BKN050 OVC060 None
2015-03-28 20:53 18 4 -1 53 330° 18 29 29.99 30.08 10 OVC060 Peak wind: 31 mph (27 kts) from 330° at 56 min
2015-03-28 19:53 19 6 1 56 330° 17 26 29.95 30.03 10 OVC070 Peak wind: 31 mph (27 kts) from 320° at 18 min
6-hr Precip Total (8pm): 0.00"
6-hr Min Temp (8pm): 19.0°F
6-hr Max Temp (8pm): 26.1°F
2015-03-28 18:53 20 8 1 59 330° 18 30 29.91 29.99 9 BKN055 OVC070 Peak wind: 35 mph (31 kts) from 310° at 56 min
1-hr Precip Total: Trace
2015-03-28 18:01 21 8 1 56 320° 22 36 29.88 - 10 FEW022 SCT027 OVC075 Peak wind: 35 mph (31 kts) from 310° at 56 min
2015-03-28 17:53 22 9 5 56 310° 16 26 29.87 29.95 10 SCT022 BKN029 OVC075 Peak wind: 31 mph (27 kts) from 330° at 36 min
1-hr Precip Total: Trace
2015-03-28 17:21 22 10 5 59 330° 18 28 29.86 - 10 BKN028 OVC034 Peak wind: 29 mph (26 kts) from 320° at 57 min
1-hr Precip Total: Trace
2015-03-28 16:53 22 10 4 59 320° 21 31 29.84 29.93 9 -SN OVC031 Peak wind: 32 mph (28 kts) from 320° at 31 min
1-hr Precip Total: Trace
6-hr Precip Total (5pm): 0.00"
2015-03-28 16:37 22 10 3 59 320° 20 32 29.84 - 10 OVC030 Peak wind: 32 mph (28 kts) from 320° at 31 min
2015-03-28 15:53 23 10 5 56 320° 21 31 29.83 29.90 10 OVC029 Peak wind: 36 mph (32 kts) from 320° at 33 min
2015-03-28 14:53 26 12 10 54 320° 18 28 29.81 29.88 10 BKN028 Peak wind: 31 mph (27 kts) from 320° at 28 min
2015-03-28 14:12 25 12 8 57 320° 21 29 29.81 - 10 OVC028 None
2015-03-28 14:05 26 12 11 54 310° 17 24 29.81 - 10 SCT025 BKN031 None
2015-03-28 13:53 25 12 8 57 330° 21 29 29.81 29.87 10 BKN025 Peak wind: 31 mph (27 kts) from 330° at 30 min
6-hr Min Temp (2pm): 21.9°F
6-hr Max Temp (2pm): 27.0°F
2015-03-28 12:53 26 11 10 52 330° 15 30 29.80 29.87 10 BKN065 Peak wind: 33 mph (29 kts) from 350° at 23 min
2015-03-28 11:53 25 11 8 54 320° 20 29 29.80 29.87 10 OVC065 Peak wind: 34 mph (30 kts) from 340° at 37 min
2015-03-28 10:53 24 12 6 59 340° 21 35 29.80 29.86 10 BKN065 Peak wind: 34 mph (30 kts) from 340° at 44 min
2015-03-28 09:53 23 13 5 64 330° 18 31 29.79 29.85 10 FEW019 Peak wind: 31 mph (27 kts) from 330° at 51 min

Support USWX by starting your Amazon purchase here.